Airfield :







YOU CAN JOIN US ON...

 
LOGIN :

Register | Disclaimer

   EN    FR    IT 

 









Legend :    VFR   Marginal VFR   IFR   Intensive IFR   Very Intensive IFR
Visi :
Ceiling :
>= 8 km
>= 3000ft
5 to 8 km
1000 to 3000 ft
1500m to 5 km
500 to 1000 ft
800 to 1500m
200 to 500 ft
< 800m
< 200 ft
Symbols :   Thunderstorms  Fog  Heavy snow  Heavy precipitations  Wind > 20 kt







- Airport Elevation : 496 ft
- IATA code : YQX


CYQX - Gander

CURRENT METAR :
  • 181900Z 28019G26KT 260V320 20SM FEW048 FEW060 SCT220 21/07 A2956 RMK CU2SC1CC1 SC TR SLP013 DENSITY ALT 1700FT

EXPIRED METARs :
  • 181800Z 29021G27KT 20SM FEW042 SCT055 SCT090 SCT210 20/08 A2955 RMK CU2SC1AC1CC1 AC TR CC TR SLP008 DENSITY ALT 1700FT
  • 181700Z 28021G27KT 20SM FEW035 SCT045 SCT090 SCT210 19/09 A2953 RMK CU2SC1AC1CC1 SC TR AC TR SLP002 DENSITY ALT 1600FT

TAF TAF CYQX
Valid from the 18 at 18:00 until the 19 at 18:00 UTC


181738Z 1818/1918 28015G25KT P6SM FEW040 SCT080
FM182000 28015G25KT P6SM SCT040 BKN060
TEMPO 1822/1904 P6SM -SHRA BKN040 OVC060
FM190400 28012G22KT P6SM FEW020 BKN040
FM191200 28015G25KT P6SM FEW040 RMK NXT FCST BY 190000Z
CZQX FIR / North America



MET'MAP, your aeronautical weather chart ! - Copyright ORBIFLY December 2007 - Disclaimer

ORBIFLY MET'MAP TEAM :

Programming & Development : Alexandra Zaïnal
Concept & Development : Baudouin d'Aumeries
Co-Development & Prog : Marc-Olivier Méhu
Technical & hardware support : Manuel Goepfert

Contact : metmap@orbifly.com




SOURCES & CREDITS :

   NOAA